KKK35G LTBA-LTAC
Flight info
| Callsign | KKK35G |
|---|---|
| Flight time | 0h 53m |
| Altitude | 33000 |
| Route | VICEN UT380 ASMAP UL333 LATGA |
| Aircraft | B752/M-SDE2E3FGHIJ3J4J7RWXY/LB1 |
Departure
| Time | 2026-05-09 08:17 |
|---|---|
| Airport | İstanbul Atatürk Airport (LTBA) |
Arrival
| Time | 2026-05-09 09:11 |
|---|---|
| Airport | Esenboğa International Airport (LTAC) |
| Time | Latitude | Longitude | Altitude | Speed | Heading |
|---|---|---|---|---|---|
| 2026-05-09 07:43 | 40.97649 | 28.82080 | 112 ft | 0 kts | 348° |
| 2026-05-09 08:07 | 40.97639 | 28.82083 | 111 ft | 2 kts | 348° |
| 2026-05-09 08:07 | 40.97625 | 28.82087 | 110 ft | 2 kts | 348° |
| 2026-05-09 08:08 | 40.97610 | 28.82088 | 110 ft | 2 kts | 10° |
| 2026-05-09 08:08 | 40.97595 | 28.82082 | 110 ft | 2 kts | 27° |
| 2026-05-09 08:08 | 40.97583 | 28.82071 | 110 ft | 2 kts | 45° |
| 2026-05-09 08:08 | 40.97574 | 28.82055 | 110 ft | 2 kts | 64° |
| 2026-05-09 08:09 | 40.97570 | 28.82042 | 110 ft | 0 kts | 77° |
| 2026-05-09 08:09 | 40.97569 | 28.82034 | 110 ft | 0 kts | 79° |
| 2026-05-09 08:11 | 40.97570 | 28.82034 | 110 ft | 0 kts | 79° |
| 2026-05-09 08:12 | 40.97581 | 28.82114 | 110 ft | 11 kts | 79° |
| 2026-05-09 08:12 | 40.97599 | 28.82233 | 109 ft | 14 kts | 79° |
| 2026-05-09 08:12 | 40.97620 | 28.82370 | 107 ft | 15 kts | 79° |
| 2026-05-09 08:13 | 40.97642 | 28.82520 | 105 ft | 17 kts | 79° |
| 2026-05-09 08:13 | 40.97665 | 28.82669 | 102 ft | 15 kts | 76° |
| 2026-05-09 08:13 | 40.97699 | 28.82810 | 99 ft | 17 kts | 78° |
| 2026-05-09 08:13 | 40.97723 | 28.82961 | 94 ft | 15 kts | 78° |
| 2026-05-09 08:14 | 40.97745 | 28.83108 | 90 ft | 16 kts | 74° |
| 2026-05-09 08:14 | 40.97797 | 28.83237 | 84 ft | 17 kts | 58° |
| 2026-05-09 08:14 | 40.97859 | 28.83372 | 78 ft | 15 kts | 59° |
| 2026-05-09 08:14 | 40.97887 | 28.83475 | 72 ft | 8 kts | 101° |
| 2026-05-09 08:15 | 40.97868 | 28.83518 | 71 ft | 2 kts | 139° |
| 2026-05-09 08:15 | 40.97867 | 28.83519 | 71 ft | 0 kts | 140° |
| 2026-05-09 08:15 | 40.97865 | 28.83522 | 71 ft | 2 kts | 140° |
| 2026-05-09 08:16 | 40.97823 | 28.83557 | 70 ft | 10 kts | 148° |
| 2026-05-09 08:16 | 40.97764 | 28.83578 | 71 ft | 7 kts | 216° |
| 2026-05-09 08:16 | 40.97741 | 28.83533 | 73 ft | 4 kts | 239° |
| 2026-05-09 08:16 | 40.97691 | 28.83425 | 79 ft | 40 kts | 238° |
| 2026-05-09 08:17 | 40.97405 | 28.82809 | 96 ft | 117 kts | 239° |
| 2026-05-09 08:17 | 40.96862 | 28.81628 | 224 ft | 174 kts | 238° |
| 2026-05-09 08:17 | 40.96236 | 28.80156 | 918 ft | 196 kts | 240° |
| 2026-05-09 08:17 | 40.95501 | 28.78678 | 1856 ft | 199 kts | 223° |
| 2026-05-09 08:18 | 40.94229 | 28.77886 | 2557 ft | 211 kts | 185° |
| 2026-05-09 08:18 | 40.92815 | 28.78283 | 3517 ft | 217 kts | 155° |
| 2026-05-09 08:18 | 40.91563 | 28.79360 | 4431 ft | 219 kts | 149° |
| 2026-05-09 08:18 | 40.90316 | 28.80499 | 5258 ft | 224 kts | 150° |
| 2026-05-09 08:19 | 40.89020 | 28.81673 | 6096 ft | 230 kts | 144° |
| 2026-05-09 08:19 | 40.88083 | 28.83401 | 6895 ft | 243 kts | 111° |
| 2026-05-09 08:19 | 40.87980 | 28.85616 | 7669 ft | 253 kts | 78° |
| 2026-05-09 08:19 | 40.88718 | 28.87715 | 8458 ft | 258 kts | 58° |
| 2026-05-09 08:20 | 40.89637 | 28.89787 | 9089 ft | 272 kts | 62° |
| 2026-05-09 08:20 | 40.90552 | 28.92090 | 9630 ft | 289 kts | 63° |
| 2026-05-09 08:20 | 40.91477 | 28.94495 | 10015 ft | 303 kts | 64° |
| 2026-05-09 08:20 | 40.92430 | 28.97030 | 10647 ft | 314 kts | 64° |
| 2026-05-09 08:21 | 40.93392 | 28.99614 | 11605 ft | 316 kts | 64° |
| 2026-05-09 08:21 | 40.94362 | 29.02239 | 12416 ft | 321 kts | 64° |
| 2026-05-09 08:21 | 40.95329 | 29.04867 | 13244 ft | 325 kts | 63° |
| 2026-05-09 08:21 | 40.96314 | 29.07548 | 14096 ft | 327 kts | 63° |
| 2026-05-09 08:22 | 40.97309 | 29.10261 | 14892 ft | 332 kts | 63° |
| 2026-05-09 08:22 | 40.98311 | 29.12998 | 15729 ft | 334 kts | 63° |
| 2026-05-09 08:22 | 40.99301 | 29.15799 | 16481 ft | 339 kts | 69° |
| 2026-05-09 08:22 | 40.99860 | 29.18899 | 16900 ft | 355 kts | 86° |
| 2026-05-09 08:23 | 40.99724 | 29.22245 | 17120 ft | 375 kts | 103° |
| 2026-05-09 08:23 | 40.98862 | 29.25534 | 17360 ft | 391 kts | 118° |
| 2026-05-09 08:23 | 40.97307 | 29.28520 | 17692 ft | 402 kts | 135° |
| 2026-05-09 08:23 | 40.95174 | 29.30966 | 18406 ft | 403 kts | 143° |
| 2026-05-09 08:24 | 40.93020 | 29.33334 | 19091 ft | 408 kts | 140° |
| 2026-05-09 08:24 | 40.90899 | 29.35832 | 19785 ft | 412 kts | 139° |
| 2026-05-09 08:24 | 40.88774 | 29.38416 | 20484 ft | 415 kts | 138° |
| 2026-05-09 08:24 | 40.86681 | 29.41007 | 21145 ft | 419 kts | 138° |
| 2026-05-09 08:25 | 40.84541 | 29.43686 | 21783 ft | 423 kts | 137° |
| 2026-05-09 08:25 | 40.82420 | 29.46355 | 22407 ft | 427 kts | 137° |
| 2026-05-09 08:25 | 40.80273 | 29.49077 | 22990 ft | 431 kts | 135° |
| 2026-05-09 08:25 | 40.78339 | 29.52103 | 23586 ft | 436 kts | 125° |
| 2026-05-09 08:26 | 40.76805 | 29.55571 | 24065 ft | 443 kts | 115° |
| 2026-05-09 08:26 | 40.75732 | 29.59386 | 24613 ft | 448 kts | 106° |
| 2026-05-09 08:26 | 40.74915 | 29.63342 | 25110 ft | 453 kts | 105° |
| 2026-05-09 08:26 | 40.74082 | 29.67402 | 25618 ft | 457 kts | 104° |
| 2026-05-09 08:27 | 40.73542 | 29.71531 | 26077 ft | 461 kts | 95° |
| 2026-05-09 08:27 | 40.73407 | 29.75750 | 26552 ft | 465 kts | 91° |
| 2026-05-09 08:27 | 40.73312 | 29.79987 | 27017 ft | 468 kts | 91° |
| 2026-05-09 08:27 | 40.73220 | 29.84312 | 27462 ft | 472 kts | 91° |
| 2026-05-09 08:28 | 40.73132 | 29.88634 | 27852 ft | 477 kts | 91° |
| 2026-05-09 08:28 | 40.73045 | 29.93025 | 28355 ft | 479 kts | 91° |
| 2026-05-09 08:28 | 40.72957 | 29.97433 | 28808 ft | 482 kts | 91° |
| 2026-05-09 08:28 | 40.72863 | 30.01927 | 29178 ft | 486 kts | 92° |
| 2026-05-09 08:29 | 40.72473 | 30.06408 | 29619 ft | 489 kts | 101° |
| 2026-05-09 08:29 | 40.71573 | 30.10739 | 30138 ft | 489 kts | 108° |
| 2026-05-09 08:29 | 40.70497 | 30.14955 | 30632 ft | 489 kts | 109° |
| 2026-05-09 08:29 | 40.69405 | 30.19204 | 31171 ft | 488 kts | 109° |
| 2026-05-09 08:30 | 40.68308 | 30.23415 | 31625 ft | 488 kts | 109° |
| 2026-05-09 08:30 | 40.67215 | 30.27688 | 32017 ft | 489 kts | 105° |
| 2026-05-09 08:30 | 40.66496 | 30.32014 | 32452 ft | 489 kts | 97° |
| 2026-05-09 08:30 | 40.66096 | 30.36478 | 32901 ft | 488 kts | 95° |
| 2026-05-09 08:31 | 40.65709 | 30.40926 | 33059 ft | 485 kts | 96° |
| 2026-05-09 08:31 | 40.65332 | 30.45299 | 33058 ft | 482 kts | 95° |
| 2026-05-09 08:31 | 40.64587 | 30.54084 | 33077 ft | 483 kts | 95° |
| 2026-05-09 08:32 | 40.63842 | 30.62879 | 33080 ft | 481 kts | 95° |
| 2026-05-09 08:33 | 40.62084 | 30.75906 | 33095 ft | 482 kts | 105° |
| 2026-05-09 08:33 | 40.60332 | 30.84345 | 33087 ft | 478 kts | 105° |
| 2026-05-09 08:34 | 40.58543 | 30.92839 | 33101 ft | 480 kts | 105° |
| 2026-05-09 08:34 | 40.56760 | 31.01236 | 33097 ft | 479 kts | 106° |
| 2026-05-09 08:35 | 40.54947 | 31.09730 | 33099 ft | 479 kts | 106° |
| 2026-05-09 08:35 | 40.53146 | 31.18126 | 33103 ft | 479 kts | 106° |
| 2026-05-09 08:36 | 40.51329 | 31.26557 | 33109 ft | 476 kts | 106° |
| 2026-05-09 08:36 | 40.49557 | 31.34745 | 33114 ft | 461 kts | 106° |
| 2026-05-09 08:37 | 40.47793 | 31.42861 | 33080 ft | 465 kts | 106° |
| 2026-05-09 08:37 | 40.46897 | 31.46970 | 32656 ft | 471 kts | 106° |
| 2026-05-09 08:37 | 40.45999 | 31.51089 | 32048 ft | 472 kts | 106° |
| 2026-05-09 08:37 | 40.45095 | 31.55230 | 31497 ft | 467 kts | 106° |
| 2026-05-09 08:38 | 40.44213 | 31.59265 | 30967 ft | 466 kts | 106° |
| 2026-05-09 08:38 | 40.43322 | 31.63336 | 30430 ft | 466 kts | 106° |
| 2026-05-09 08:38 | 40.42414 | 31.67467 | 29856 ft | 468 kts | 106° |
| 2026-05-09 08:38 | 40.41513 | 31.71565 | 29294 ft | 468 kts | 107° |
| 2026-05-09 08:39 | 40.40624 | 31.75604 | 28768 ft | 462 kts | 107° |
| 2026-05-09 08:39 | 40.39744 | 31.79595 | 28240 ft | 454 kts | 107° |
| 2026-05-09 08:39 | 40.38869 | 31.83554 | 27710 ft | 449 kts | 107° |
| 2026-05-09 08:39 | 40.38003 | 31.87465 | 27203 ft | 445 kts | 107° |
| 2026-05-09 08:40 | 40.37135 | 31.91377 | 26695 ft | 439 kts | 107° |
| 2026-05-09 08:40 | 40.36295 | 31.95154 | 26206 ft | 434 kts | 107° |
| 2026-05-09 08:40 | 40.35446 | 31.98945 | 25685 ft | 432 kts | 107° |
| 2026-05-09 08:40 | 40.34609 | 32.02676 | 25164 ft | 427 kts | 107° |
| 2026-05-09 08:41 | 40.33770 | 32.06404 | 24660 ft | 420 kts | 107° |
| 2026-05-09 08:41 | 40.32952 | 32.10037 | 24241 ft | 414 kts | 107° |
| 2026-05-09 08:41 | 40.32143 | 32.13639 | 23695 ft | 415 kts | 108° |
| 2026-05-09 08:41 | 40.31481 | 32.17270 | 23179 ft | 411 kts | 99° |
| 2026-05-09 08:42 | 40.31319 | 32.21005 | 22678 ft | 408 kts | 88° |
| 2026-05-09 08:42 | 40.31700 | 32.24657 | 22178 ft | 407 kts | 76° |
| 2026-05-09 08:42 | 40.32592 | 32.28178 | 21693 ft | 406 kts | 70° |
| 2026-05-09 08:42 | 40.33604 | 32.31633 | 21201 ft | 403 kts | 69° |
| 2026-05-09 08:43 | 40.34643 | 32.34999 | 20726 ft | 400 kts | 68° |
| 2026-05-09 08:43 | 40.35707 | 32.38356 | 20261 ft | 397 kts | 70° |
| 2026-05-09 08:43 | 40.36385 | 32.41814 | 19815 ft | 393 kts | 84° |
| 2026-05-09 08:43 | 40.36358 | 32.45376 | 19372 ft | 390 kts | 99° |
| 2026-05-09 08:44 | 40.35639 | 32.48783 | 18782 ft | 389 kts | 115° |
| 2026-05-09 08:44 | 40.34329 | 32.51857 | 18296 ft | 380 kts | 124° |
| 2026-05-09 08:44 | 40.32903 | 32.54720 | 17793 ft | 378 kts | 125° |
| 2026-05-09 08:44 | 40.31422 | 32.57583 | 17363 ft | 376 kts | 126° |
| 2026-05-09 08:45 | 40.29936 | 32.60372 | 16990 ft | 376 kts | 126° |
| 2026-05-09 08:45 | 40.28420 | 32.63178 | 16639 ft | 374 kts | 126° |
| 2026-05-09 08:45 | 40.26916 | 32.65935 | 16253 ft | 372 kts | 127° |
| 2026-05-09 08:45 | 40.25427 | 32.68651 | 16118 ft | 355 kts | 127° |
| 2026-05-09 08:46 | 40.24028 | 32.71198 | 16116 ft | 336 kts | 127° |
| 2026-05-09 08:46 | 40.22702 | 32.73605 | 16103 ft | 311 kts | 128° |
| 2026-05-09 08:46 | 40.21495 | 32.75790 | 16119 ft | 286 kts | 128° |
| 2026-05-09 08:46 | 40.20346 | 32.77873 | 16144 ft | 279 kts | 126° |
| 2026-05-09 08:47 | 40.19541 | 32.80230 | 16194 ft | 291 kts | 99° |
| 2026-05-09 08:47 | 40.19565 | 32.82901 | 15945 ft | 305 kts | 75° |
| 2026-05-09 08:47 | 40.20467 | 32.85386 | 15561 ft | 300 kts | 48° |
| 2026-05-09 08:47 | 40.22037 | 32.87092 | 15236 ft | 287 kts | 28° |
| 2026-05-09 08:48 | 40.23718 | 32.88432 | 14872 ft | 284 kts | 32° |
| 2026-05-09 08:48 | 40.25339 | 32.89865 | 14541 ft | 281 kts | 33° |
| 2026-05-09 08:48 | 40.26947 | 32.91330 | 14189 ft | 282 kts | 33° |
| 2026-05-09 08:48 | 40.28551 | 32.92824 | 13875 ft | 282 kts | 34° |
| 2026-05-09 08:49 | 40.30156 | 32.94334 | 13551 ft | 282 kts | 34° |
| 2026-05-09 08:49 | 40.31733 | 32.95828 | 13211 ft | 282 kts | 34° |
| 2026-05-09 08:49 | 40.33314 | 32.97332 | 12866 ft | 279 kts | 34° |
| 2026-05-09 08:49 | 40.34878 | 32.98824 | 12561 ft | 275 kts | 34° |
| 2026-05-09 08:50 | 40.36417 | 33.00294 | 12241 ft | 274 kts | 34° |
| 2026-05-09 08:50 | 40.37954 | 33.01763 | 11923 ft | 274 kts | 34° |
| 2026-05-09 08:50 | 40.39479 | 33.03230 | 11590 ft | 273 kts | 38° |
| 2026-05-09 08:50 | 40.40686 | 33.05117 | 11284 ft | 270 kts | 66° |
| 2026-05-09 08:51 | 40.41050 | 33.07505 | 11097 ft | 267 kts | 96° |
| 2026-05-09 08:51 | 40.40503 | 33.09803 | 10914 ft | 267 kts | 122° |
| 2026-05-09 08:51 | 40.39479 | 33.11869 | 10640 ft | 269 kts | 125° |
| 2026-05-09 08:51 | 40.38446 | 33.13880 | 10346 ft | 265 kts | 125° |
| 2026-05-09 08:52 | 40.37295 | 33.15736 | 9947 ft | 263 kts | 144° |
| 2026-05-09 08:52 | 40.35679 | 33.16697 | 9642 ft | 253 kts | 175° |
| 2026-05-09 08:52 | 40.33986 | 33.16450 | 9514 ft | 239 kts | 203° |
| 2026-05-09 08:52 | 40.32456 | 33.15619 | 9291 ft | 234 kts | 202° |
| 2026-05-09 08:53 | 40.30959 | 33.14865 | 9093 ft | 226 kts | 202° |
| 2026-05-09 08:53 | 40.29526 | 33.14139 | 8920 ft | 219 kts | 202° |
| 2026-05-09 08:53 | 40.28119 | 33.13425 | 8745 ft | 210 kts | 202° |
| 2026-05-09 08:53 | 40.26796 | 33.12755 | 8600 ft | 201 kts | 202° |
| 2026-05-09 08:54 | 40.25570 | 33.11871 | 8346 ft | 197 kts | 217° |
| 2026-05-09 08:54 | 40.24454 | 33.10770 | 7879 ft | 204 kts | 216° |
| 2026-05-09 08:54 | 40.23332 | 33.09695 | 7590 ft | 203 kts | 215° |
| 2026-05-09 08:54 | 40.22144 | 33.08559 | 7089 ft | 211 kts | 215° |
| 2026-05-09 08:55 | 40.20947 | 33.07415 | 6708 ft | 212 kts | 214° |
| 2026-05-09 08:55 | 40.19790 | 33.06310 | 6677 ft | 200 kts | 214° |
| 2026-05-09 08:55 | 40.18556 | 33.05139 | 6704 ft | 240 kts | 214° |
| 2026-05-09 08:55 | 40.17181 | 33.03830 | 6700 ft | 242 kts | 215° |
| 2026-05-09 08:56 | 40.15822 | 33.02535 | 6698 ft | 240 kts | 215° |
| 2026-05-09 08:56 | 40.14476 | 33.01254 | 6699 ft | 239 kts | 215° |
| 2026-05-09 08:56 | 40.13119 | 32.99962 | 6704 ft | 240 kts | 215° |
| 2026-05-09 08:56 | 40.11758 | 32.98665 | 6704 ft | 240 kts | 215° |
| 2026-05-09 08:57 | 40.10411 | 32.97382 | 6705 ft | 239 kts | 215° |
| 2026-05-09 08:57 | 40.09065 | 32.96100 | 6702 ft | 239 kts | 215° |
| 2026-05-09 08:57 | 40.07721 | 32.94817 | 6705 ft | 240 kts | 215° |
| 2026-05-09 08:57 | 40.06356 | 32.93514 | 6701 ft | 240 kts | 215° |
| 2026-05-09 08:58 | 40.05041 | 32.92191 | 6696 ft | 241 kts | 225° |
| 2026-05-09 08:58 | 40.04203 | 32.90309 | 6732 ft | 245 kts | 256° |
| 2026-05-09 08:58 | 40.04240 | 32.88071 | 6736 ft | 251 kts | 288° |
| 2026-05-09 08:58 | 40.05083 | 32.86087 | 6725 ft | 254 kts | 305° |
| 2026-05-09 08:59 | 40.06163 | 32.84235 | 6691 ft | 252 kts | 306° |
| 2026-05-09 08:59 | 40.07219 | 32.82435 | 6690 ft | 251 kts | 306° |
| 2026-05-09 08:59 | 40.08449 | 32.80833 | 6704 ft | 252 kts | 330° |
| 2026-05-09 08:59 | 40.10124 | 32.80182 | 6719 ft | 255 kts | 1° |
| 2026-05-09 09:00 | 40.11834 | 32.80721 | 6721 ft | 254 kts | 30° |
| 2026-05-09 09:00 | 40.13322 | 32.81972 | 6694 ft | 254 kts | 36° |
| 2026-05-09 09:00 | 40.14777 | 32.83268 | 6684 ft | 252 kts | 36° |
| 2026-05-09 09:00 | 40.16240 | 32.84557 | 6692 ft | 252 kts | 36° |
| 2026-05-09 09:01 | 40.17691 | 32.85840 | 6692 ft | 252 kts | 35° |
| 2026-05-09 09:01 | 40.19148 | 32.87126 | 6693 ft | 252 kts | 36° |
| 2026-05-09 09:01 | 40.20594 | 32.88407 | 6690 ft | 251 kts | 36° |
| 2026-05-09 09:01 | 40.22046 | 32.89690 | 6691 ft | 252 kts | 36° |
| 2026-05-09 09:02 | 40.23514 | 32.90982 | 6690 ft | 252 kts | 36° |
| 2026-05-09 09:02 | 40.24965 | 32.92277 | 6693 ft | 252 kts | 36° |
| 2026-05-09 09:02 | 40.26423 | 32.93562 | 6701 ft | 254 kts | 36° |
| 2026-05-09 09:02 | 40.27906 | 32.94863 | 6705 ft | 255 kts | 36° |
| 2026-05-09 09:03 | 40.29390 | 32.96178 | 6719 ft | 255 kts | 36° |
| 2026-05-09 09:03 | 40.30857 | 32.97479 | 6706 ft | 255 kts | 35° |
| 2026-05-09 09:03 | 40.32334 | 32.98787 | 6705 ft | 255 kts | 36° |
| 2026-05-09 09:03 | 40.33806 | 33.00086 | 6712 ft | 256 kts | 36° |
| 2026-05-09 09:04 | 40.35278 | 33.01400 | 6714 ft | 256 kts | 38° |
| 2026-05-09 09:04 | 40.36443 | 33.03125 | 6738 ft | 250 kts | 69° |
| 2026-05-09 09:04 | 40.36786 | 33.05322 | 6628 ft | 250 kts | 98° |
| 2026-05-09 09:04 | 40.36259 | 33.07408 | 6509 ft | 240 kts | 123° |
| 2026-05-09 09:05 | 40.35360 | 33.09243 | 6385 ft | 236 kts | 126° |
| 2026-05-09 09:05 | 40.34468 | 33.11030 | 6305 ft | 236 kts | 125° |
| 2026-05-09 09:05 | 40.33551 | 33.12831 | 6229 ft | 237 kts | 131° |
| 2026-05-09 09:05 | 40.32264 | 33.14110 | 6188 ft | 232 kts | 162° |
| 2026-05-09 09:06 | 40.30655 | 33.14402 | 6114 ft | 233 kts | 181° |
| 2026-05-09 09:06 | 40.29078 | 33.14300 | 6035 ft | 222 kts | 183° |
| 2026-05-09 09:06 | 40.27646 | 33.13809 | 6010 ft | 204 kts | 212° |
| 2026-05-09 09:06 | 40.26579 | 33.12746 | 6018 ft | 185 kts | 215° |
| 2026-05-09 09:07 | 40.25514 | 33.11728 | 5807 ft | 190 kts | 213° |
| 2026-05-09 09:07 | 40.24476 | 33.10755 | 5548 ft | 179 kts | 213° |
| 2026-05-09 09:07 | 40.23510 | 33.09831 | 5301 ft | 163 kts | 214° |
| 2026-05-09 09:07 | 40.22590 | 33.08955 | 5110 ft | 167 kts | 213° |
| 2026-05-09 09:08 | 40.21628 | 33.08041 | 4921 ft | 171 kts | 214° |
| 2026-05-09 09:08 | 40.20675 | 33.07132 | 4714 ft | 170 kts | 214° |
| 2026-05-09 09:08 | 40.19718 | 33.06221 | 4480 ft | 170 kts | 214° |
| 2026-05-09 09:08 | 40.18769 | 33.05316 | 4246 ft | 160 kts | 214° |
| 2026-05-09 09:09 | 40.17919 | 33.04504 | 4009 ft | 142 kts | 213° |
| 2026-05-09 09:09 | 40.17129 | 33.03754 | 3843 ft | 140 kts | 213° |
| 2026-05-09 09:09 | 40.16330 | 33.02982 | 3677 ft | 146 kts | 214° |
| 2026-05-09 09:09 | 40.15518 | 33.02204 | 3486 ft | 143 kts | 213° |
| 2026-05-09 09:10 | 40.14713 | 33.01441 | 3311 ft | 142 kts | 213° |
| 2026-05-09 09:10 | 40.13891 | 33.00673 | 3155 ft | 143 kts | 212° |
| 2026-05-09 09:10 | 40.13227 | 33.00053 | 3148 ft | 86 kts | 216° |
| 2026-05-09 09:10 | 40.12843 | 32.99688 | 3143 ft | 52 kts | 216° |
| 2026-05-09 09:11 | 40.12653 | 32.99504 | 3142 ft | 27 kts | 216° |
| 2026-05-09 09:11 | 40.12496 | 32.99356 | 3140 ft | 30 kts | 215° |
| 2026-05-09 09:11 | 40.12309 | 32.99226 | 3139 ft | 24 kts | 195° |
| 2026-05-09 09:11 | 40.12182 | 32.99198 | 3141 ft | 14 kts | 187° |
| 2026-05-09 09:12 | 40.12087 | 32.99187 | 3141 ft | 12 kts | 184° |
| 2026-05-09 09:12 | 40.12008 | 32.99176 | 3142 ft | 11 kts | 190° |
| 2026-05-09 09:12 | 40.11941 | 32.99132 | 3142 ft | 11 kts | 217° |
| 2026-05-09 09:12 | 40.11867 | 32.99060 | 3141 ft | 10 kts | 215° |
| 2026-05-09 09:13 | 40.11805 | 32.99049 | 3141 ft | 8 kts | 147° |
| 2026-05-09 09:13 | 40.11769 | 32.99094 | 3142 ft | 6 kts | 139° |
| 2026-05-09 09:13 | 40.11735 | 32.99124 | 3143 ft | 5 kts | 156° |
| 2026-05-09 09:13 | 40.11707 | 32.99158 | 3143 ft | 4 kts | 116° |
| 2026-05-09 09:14 | 40.11712 | 32.99194 | 3144 ft | 4 kts | 57° |
| 2026-05-09 09:14 | 40.11727 | 32.99242 | 3145 ft | 5 kts | 102° |
| 2026-05-09 09:14 | 40.11699 | 32.99271 | 3145 ft | 5 kts | 155° |
| 2026-05-09 09:14 | 40.11674 | 32.99285 | 3145 ft | 0 kts | 158° |
| 2026-05-09 09:15 | 40.11671 | 32.99287 | 3145 ft | 0 kts | 158° |